sensor_id;sensor_type;location;lat;lon;timestamp;pressure;altitude;pressure_sealevel;temperature;humidity
36538;BME280;22545;48.892;9.138;2022-08-14T00:00:12;97711.47;;;21.06;72.99
36538;BME280;22545;48.892;9.138;2022-08-14T00:02:38;97710.63;;;20.96;71.33
36538;BME280;22545;48.892;9.138;2022-08-14T00:05:04;97704.19;;;20.79;73.78
36538;BME280;22545;48.892;9.138;2022-08-14T00:07:30;97702.34;;;20.48;77.38
36538;BME280;22545;48.892;9.138;2022-08-14T00:09:55;97698.03;;;20.16;81.08
36538;BME280;22545;48.892;9.138;2022-08-14T00:12:20;97690.94;;;20.07;82.38
36538;BME280;22545;48.892;9.138;2022-08-14T00:14:46;97677.31;;;20.04;83.31
36538;BME280;22545;48.892;9.138;2022-08-14T00:17:12;97681.72;;;20.03;82.95
36538;BME280;22545;48.892;9.138;2022-08-14T00:19:37;97678.22;;;20.14;81.73
36538;BME280;22545;48.892;9.138;2022-08-14T00:22:02;97676.19;;;20.18;81.85
36538;BME280;22545;48.892;9.138;2022-08-14T00:24:28;97675.59;;;20.14;82.33
36538;BME280;22545;48.892;9.138;2022-08-14T00:26:53;97670.50;;;20.12;83.14
36538;BME280;22545;48.892;9.138;2022-08-14T00:29:18;97667.72;;;20.04;84.38
36538;BME280;22545;48.892;9.138;2022-08-14T00:31:43;97666.28;;;20.00;84.55
36538;BME280;22545;48.892;9.138;2022-08-14T00:34:09;97652.31;;;20.01;85.03
36538;BME280;22545;48.892;9.138;2022-08-14T00:36:34;97657.94;;;19.85;86.74
36538;BME280;22545;48.892;9.138;2022-08-14T00:38:59;97660.31;;;19.77;88.17
36538;BME280;22545;48.892;9.138;2022-08-14T00:41:29;97649.28;;;19.73;88.80
36538;BME280;22545;48.892;9.138;2022-08-14T00:43:54;97648.25;;;19.64;90.32
36538;BME280;22545;48.892;9.138;2022-08-14T00:46:19;97645.25;;;19.48;92.67
36538;BME280;22545;48.892;9.138;2022-08-14T00:48:45;97560.19;;;18.81;93.75
36538;BME280;22545;48.892;9.138;2022-08-14T00:51:10;97648.00;;;19.35;94.44
36538;BME280;22545;48.892;9.138;2022-08-14T00:53:35;97640.66;;;19.29;95.35
36538;BME280;22545;48.892;9.138;2022-08-14T00:56:02;97640.31;;;19.22;96.44
36538;BME280;22545;48.892;9.138;2022-08-14T00:58:28;97641.97;;;19.23;96.94
36538;BME280;22545;48.892;9.138;2022-08-14T01:00:56;97641.16;;;19.23;97.98
36538;BME280;22545;48.892;9.138;2022-08-14T01:03:22;97647.44;;;19.20;98.17
36538;BME280;22545;48.892;9.138;2022-08-14T01:05:49;97644.38;;;19.15;99.12
36538;BME280;22545;48.892;9.138;2022-08-14T01:08:19;97635.00;;;19.13;99.70
36538;BME280;22545;48.892;9.138;2022-08-14T01:10:44;97638.81;;;19.08;100.00
36538;BME280;22545;48.892;9.138;2022-08-14T01:13:15;97635.84;;;18.90;100.00
36538;BME280;22545;48.892;9.138;2022-08-14T01:15:44;97634.75;;;18.82;100.00
36538;BME280;22545;48.892;9.138;2022-08-14T01:18:10;97641.66;;;18.71;100.00
36538;BME280;22545;48.892;9.138;2022-08-14T01:20:55;97637.97;;;18.63;100.00
36538;BME280;22545;48.892;9.138;2022-08-14T01:23:48;97633.81;;;18.60;100.00
36538;BME280;22545;48.892;9.138;2022-08-14T01:26:14;97631.69;;;18.54;100.00
36538;BME280;22545;48.892;9.138;2022-08-14T01:28:40;97630.03;;;18.64;100.00
36538;BME280;22545;48.892;9.138;2022-08-14T01:31:08;97626.97;;;18.70;100.00
36538;BME280;22545;48.892;9.138;2022-08-14T01:33:35;97628.63;;;18.71;100.00
36538;BME280;22545;48.892;9.138;2022-08-14T01:36:02;97629.91;;;18.77;100.00
36538;BME280;22545;48.892;9.138;2022-08-14T01:38:28;97629.59;;;18.93;100.00
36538;BME280;22545;48.892;9.138;2022-08-14T01:40:59;97629.09;;;18.77;100.00
36538;BME280;22545;48.892;9.138;2022-08-14T01:43:24;97632.28;;;18.69;100.00
36538;BME280;22545;48.892;9.138;2022-08-14T01:45:55;97625.78;;;18.74;100.00
36538;BME280;22545;48.892;9.138;2022-08-14T01:48:21;97625.66;;;18.53;100.00
36538;BME280;22545;48.892;9.138;2022-08-14T01:50:47;97612.88;;;18.50;100.00
36538;BME280;22545;48.892;9.138;2022-08-14T01:53:13;97616.16;;;18.41;100.00
36538;BME280;22545;48.892;9.138;2022-08-14T01:55:39;97620.56;;;18.52;100.00
36538;BME280;22545;48.892;9.138;2022-08-14T01:58:05;97611.19;;;18.61;100.00
36538;BME280;22545;48.892;9.138;2022-08-14T02:00:30;97590.72;;;18.56;100.00
36538;BME280;22545;48.892;9.138;2022-08-14T02:02:55;97586.94;;;18.26;100.00
36538;BME280;22545;48.892;9.138;2022-08-14T02:05:24;97590.09;;;18.07;100.00
36538;BME280;22545;48.892;9.138;2022-08-14T02:07:51;97586.69;;;18.18;100.00
36538;BME280;22545;48.892;9.138;2022-08-14T02:10:16;97589.31;;;18.29;100.00
36538;BME280;22545;48.892;9.138;2022-08-14T02:12:43;97595.81;;;18.24;100.00
36538;BME280;22545;48.892;9.138;2022-08-14T02:15:10;97589.75;;;18.23;100.00
36538;BME280;22545;48.892;9.138;2022-08-14T02:17:36;97594.84;;;18.13;100.00
36538;BME280;22545;48.892;9.138;2022-08-14T02:20:02;97598.88;;;18.17;100.00
36538;BME280;22545;48.892;9.138;2022-08-14T02:22:28;97613.03;;;18.02;100.00
36538;BME280;22545;48.892;9.138;2022-08-14T02:24:53;97599.50;;;17.85;100.00
36538;BME280;22545;48.892;9.138;2022-08-14T02:27:18;97597.97;;;17.59;100.00
36538;BME280;22545;48.892;9.138;2022-08-14T02:29:44;97594.94;;;17.41;100.00
36538;BME280;22545;48.892;9.138;2022-08-14T02:32:09;97595.00;;;17.28;100.00
36538;BME280;22545;48.892;9.138;2022-08-14T02:34:36;97589.78;;;17.28;100.00
36538;BME280;22545;48.892;9.138;2022-08-14T02:37:09;97579.19;;;17.31;100.00
36538;BME280;22545;48.892;9.138;2022-08-14T02:39:36;97575.41;;;17.35;100.00
36538;BME280;22545;48.892;9.138;2022-08-14T02:42:02;97573.53;;;17.37;100.00
36538;BME280;22545;48.892;9.138;2022-08-14T02:44:27;97576.75;;;17.41;100.00
36538;BME280;22545;48.892;9.138;2022-08-14T02:46:53;97567.81;;;17.45;100.00
36538;BME280;22545;48.892;9.138;2022-08-14T02:49:21;97566.59;;;17.49;100.00
36538;BME280;22545;48.892;9.138;2022-08-14T02:51:50;97565.22;;;17.56;100.00
36538;BME280;22545;48.892;9.138;2022-08-14T02:54:16;97559.22;;;17.56;100.00
36538;BME280;22545;48.892;9.138;2022-08-14T02:56:41;97549.75;;;17.55;100.00
36538;BME280;22545;48.892;9.138;2022-08-14T02:59:07;97550.19;;;17.48;100.00
36538;BME280;22545;48.892;9.138;2022-08-14T03:01:34;97543.31;;;17.47;100.00
36538;BME280;22545;48.892;9.138;2022-08-14T03:04:00;97542.00;;;17.42;100.00
36538;BME280;22545;48.892;9.138;2022-08-14T03:06:25;97543.56;;;17.44;100.00
36538;BME280;22545;48.892;9.138;2022-08-14T03:08:51;97539.41;;;17.42;100.00
36538;BME280;22545;48.892;9.138;2022-08-14T03:11:17;97542.69;;;17.32;100.00
36538;BME280;22545;48.892;9.138;2022-08-14T03:13:43;97537.94;;;17.26;100.00
36538;BME280;22545;48.892;9.138;2022-08-14T03:16:10;97534.13;;;17.19;100.00
36538;BME280;22545;48.892;9.138;2022-08-14T03:18:38;97533.84;;;17.11;100.00
36538;BME280;22545;48.892;9.138;2022-08-14T03:21:08;97535.28;;;17.15;100.00
36538;BME280;22545;48.892;9.138;2022-08-14T03:23:34;97538.16;;;16.99;100.00
36538;BME280;22545;48.892;9.138;2022-08-14T03:26:00;97528.44;;;16.90;100.00
36538;BME280;22545;48.892;9.138;2022-08-14T03:28:27;97523.34;;;16.88;100.00
36538;BME280;22545;48.892;9.138;2022-08-14T03:30:53;97515.22;;;16.80;100.00
36538;BME280;22545;48.892;9.138;2022-08-14T03:33:18;97518.16;;;16.75;100.00
36538;BME280;22545;48.892;9.138;2022-08-14T03:35:44;97509.66;;;16.73;100.00
36538;BME280;22545;48.892;9.138;2022-08-14T03:38:10;97516.50;;;16.74;100.00
36538;BME280;22545;48.892;9.138;2022-08-14T03:40:36;97506.72;;;16.78;100.00
36538;BME280;22545;48.892;9.138;2022-08-14T03:43:03;97508.56;;;16.89;100.00
36538;BME280;22545;48.892;9.138;2022-08-14T03:45:30;97513.97;;;16.98;100.00
36538;BME280;22545;48.892;9.138;2022-08-14T03:47:55;97506.44;;;17.07;100.00
36538;BME280;22545;48.892;9.138;2022-08-14T03:50:20;97503.16;;;17.16;100.00
36538;BME280;22545;48.892;9.138;2022-08-14T03:52:46;97517.03;;;17.04;100.00
36538;BME280;22545;48.892;9.138;2022-08-14T03:55:11;97508.97;;;17.20;100.00
36538;BME280;22545;48.892;9.138;2022-08-14T03:57:38;97511.63;;;17.07;100.00
36538;BME280;22545;48.892;9.138;2022-08-14T04:00:05;97514.56;;;17.02;100.00
36538;BME280;22545;48.892;9.138;2022-08-14T04:02:32;97514.06;;;16.97;100.00
36538;BME280;22545;48.892;9.138;2022-08-14T04:04:58;97506.50;;;16.94;100.00
36538;BME280;22545;48.892;9.138;2022-08-14T04:07:23;97513.97;;;16.86;100.00
36538;BME280;22545;48.892;9.138;2022-08-14T04:09:48;97511.66;;;16.70;100.00
36538;BME280;22545;48.892;9.138;2022-08-14T04:12:14;97506.00;;;16.39;100.00
36538;BME280;22545;48.892;9.138;2022-08-14T04:14:39;97505.06;;;16.40;100.00
36538;BME280;22545;48.892;9.138;2022-08-14T04:17:04;97503.44;;;16.26;100.00
36538;BME280;22545;48.892;9.138;2022-08-14T04:19:29;97504.16;;;16.15;100.00
36538;BME280;22545;48.892;9.138;2022-08-14T04:21:55;97496.09;;;16.07;100.00
36538;BME280;22545;48.892;9.138;2022-08-14T04:24:20;97503.56;;;16.24;100.00
36538;BME280;22545;48.892;9.138;2022-08-14T04:26:45;97496.44;;;16.39;100.00
36538;BME280;22545;48.892;9.138;2022-08-14T04:29:11;97492.09;;;16.27;100.00
36538;BME280;22545;48.892;9.138;2022-08-14T04:31:37;97488.97;;;16.35;100.00
36538;BME280;22545;48.892;9.138;2022-08-14T04:34:03;97492.53;;;16.34;100.00
36538;BME280;22545;48.892;9.138;2022-08-14T04:36:29;97491.91;;;16.30;100.00
36538;BME280;22545;48.892;9.138;2022-08-14T04:38:54;97484.31;;;16.27;100.00
36538;BME280;22545;48.892;9.138;2022-08-14T04:41:38;97481.63;;;16.28;100.00
36538;BME280;22545;48.892;9.138;2022-08-14T04:44:22;97492.97;;;16.27;100.00
36538;BME280;22545;48.892;9.138;2022-08-14T04:46:47;97490.47;;;16.26;100.00
36538;BME280;22545;48.892;9.138;2022-08-14T04:49:31;97494.16;;;16.35;100.00
36538;BME280;22545;48.892;9.138;2022-08-14T04:51:57;97494.28;;;16.33;100.00
36538;BME280;22545;48.892;9.138;2022-08-14T04:54:23;97496.25;;;16.42;100.00
36538;BME280;22545;48.892;9.138;2022-08-14T04:56:52;97491.31;;;16.63;100.00
36538;BME280;22545;48.892;9.138;2022-08-14T04:59:19;97503.06;;;16.56;100.00
36538;BME280;22545;48.892;9.138;2022-08-14T05:01:44;97504.47;;;16.73;100.00
36538;BME280;22545;48.892;9.138;2022-08-14T05:04:10;97502.19;;;16.69;100.00
36538;BME280;22545;48.892;9.138;2022-08-14T05:06:36;97510.84;;;16.56;100.00
36538;BME280;22545;48.892;9.138;2022-08-14T05:09:02;97499.81;;;16.66;100.00
36538;BME280;22545;48.892;9.138;2022-08-14T05:11:27;97497.31;;;16.64;100.00
36538;BME280;22545;48.892;9.138;2022-08-14T05:13:58;97492.84;;;16.66;100.00
36538;BME280;22545;48.892;9.138;2022-08-14T05:16:23;97512.56;;;16.69;100.00
36538;BME280;22545;48.892;9.138;2022-08-14T05:18:55;97508.63;;;16.76;100.00
36538;BME280;22545;48.892;9.138;2022-08-14T05:21:20;97503.69;;;16.84;100.00
36538;BME280;22545;48.892;9.138;2022-08-14T05:23:46;97509.22;;;16.92;100.00
36538;BME280;22545;48.892;9.138;2022-08-14T05:26:12;97504.78;;;17.06;100.00
36538;BME280;22545;48.892;9.138;2022-08-14T05:28:39;97500.78;;;17.13;100.00
36538;BME280;22545;48.892;9.138;2022-08-14T05:31:07;97502.28;;;17.28;100.00
36538;BME280;22545;48.892;9.138;2022-08-14T05:33:33;97503.22;;;17.27;100.00
36538;BME280;22545;48.892;9.138;2022-08-14T05:36:00;97498.44;;;17.45;100.00
36538;BME280;22545;48.892;9.138;2022-08-14T05:38:26;97497.59;;;17.45;100.00
36538;BME280;22545;48.892;9.138;2022-08-14T05:40:53;97490.41;;;17.48;100.00
36538;BME280;22545;48.892;9.138;2022-08-14T05:43:18;97494.44;;;17.52;100.00
36538;BME280;22545;48.892;9.138;2022-08-14T05:45:43;97490.75;;;17.55;100.00
36538;BME280;22545;48.892;9.138;2022-08-14T05:48:12;97489.50;;;17.72;100.00
36538;BME280;22545;48.892;9.138;2022-08-14T05:50:38;97487.16;;;17.80;100.00
36538;BME280;22545;48.892;9.138;2022-08-14T05:53:04;97482.81;;;17.92;100.00
36538;BME280;22545;48.892;9.138;2022-08-14T05:55:29;97483.91;;;18.01;100.00
36538;BME280;22545;48.892;9.138;2022-08-14T05:57:55;97483.63;;;18.15;100.00
36538;BME280;22545;48.892;9.138;2022-08-14T06:00:22;97488.97;;;18.25;100.00
36538;BME280;22545;48.892;9.138;2022-08-14T06:02:48;97494.88;;;18.27;100.00
36538;BME280;22545;48.892;9.138;2022-08-14T06:05:13;97497.59;;;18.37;100.00
36538;BME280;22545;48.892;9.138;2022-08-14T06:07:38;97494.16;;;18.48;100.00
36538;BME280;22545;48.892;9.138;2022-08-14T06:10:05;97486.06;;;18.62;100.00
36538;BME280;22545;48.892;9.138;2022-08-14T06:12:30;97494.31;;;18.79;100.00
36538;BME280;22545;48.892;9.138;2022-08-14T06:14:56;97489.34;;;19.19;100.00
36538;BME280;22545;48.892;9.138;2022-08-14T06:17:21;97489.06;;;19.55;100.00
36538;BME280;22545;48.892;9.138;2022-08-14T06:19:46;97483.91;;;19.86;100.00
36538;BME280;22545;48.892;9.138;2022-08-14T06:22:11;97481.47;;;20.25;100.00
36538;BME280;22545;48.892;9.138;2022-08-14T06:24:37;97475.91;;;21.19;97.21
36538;BME280;22545;48.892;9.138;2022-08-14T06:27:02;97477.69;;;22.05;89.30
36538;BME280;22545;48.892;9.138;2022-08-14T06:29:28;97477.28;;;22.65;80.41
36538;BME280;22545;48.892;9.138;2022-08-14T06:31:53;97467.31;;;22.87;77.21
36538;BME280;22545;48.892;9.138;2022-08-14T06:34:18;97462.31;;;22.93;78.43
36538;BME280;22545;48.892;9.138;2022-08-14T06:36:43;97455.97;;;22.96;78.12
36538;BME280;22545;48.892;9.138;2022-08-14T06:39:09;97453.72;;;23.19;76.85
36538;BME280;22545;48.892;9.138;2022-08-14T06:41:34;97451.44;;;23.95;71.38
36538;BME280;22545;48.892;9.138;2022-08-14T06:43:59;97455.34;;;24.17;70.78
36538;BME280;22545;48.892;9.138;2022-08-14T06:46:27;97437.53;;;24.53;68.49
36538;BME280;22545;48.892;9.138;2022-08-14T06:48:52;97440.34;;;23.75;72.87
36538;BME280;22545;48.892;9.138;2022-08-14T06:51:17;97439.66;;;24.42;71.04
36538;BME280;22545;48.892;9.138;2022-08-14T06:53:42;97434.38;;;24.42;65.05
36538;BME280;22545;48.892;9.138;2022-08-14T06:56:08;97427.47;;;24.32;66.64
36538;BME280;22545;48.892;9.138;2022-08-14T06:58:33;97434.75;;;24.55;63.72
36538;BME280;22545;48.892;9.138;2022-08-14T07:00:58;97431.25;;;25.05;60.40
36538;BME280;22545;48.892;9.138;2022-08-14T07:03:42;97423.56;;;25.93;55.15
36538;BME280;22545;48.892;9.138;2022-08-14T07:06:26;97430.91;;;25.25;57.26
36538;BME280;22545;48.892;9.138;2022-08-14T07:08:51;97430.56;;;25.61;55.48
36538;BME280;22545;48.892;9.138;2022-08-14T07:11:17;97416.28;;;25.39;54.85
36538;BME280;22545;48.892;9.138;2022-08-14T07:13:42;97416.94;;;25.49;55.01
36538;BME280;22545;48.892;9.138;2022-08-14T07:16:08;97413.53;;;26.36;51.56
36538;BME280;22545;48.892;9.138;2022-08-14T07:18:36;97409.84;;;27.38;46.60
36538;BME280;22545;48.892;9.138;2022-08-14T07:21:03;97410.47;;;27.02;45.61
36538;BME280;22545;48.892;9.138;2022-08-14T07:23:29;97423.84;;;26.77;45.51
36538;BME280;22545;48.892;9.138;2022-08-14T07:25:55;97416.81;;;27.31;44.72
36538;BME280;22545;48.892;9.138;2022-08-14T07:28:23;97424.72;;;27.16;45.12
36538;BME280;22545;48.892;9.138;2022-08-14T07:30:49;97411.13;;;26.49;46.45
36538;BME280;22545;48.892;9.138;2022-08-14T07:33:15;97409.50;;;27.41;43.50
36538;BME280;22545;48.892;9.138;2022-08-14T07:35:40;97421.19;;;27.00;43.92
36538;BME280;22545;48.892;9.138;2022-08-14T07:38:06;97423.47;;;27.95;41.98
36538;BME280;22545;48.892;9.138;2022-08-14T07:40:32;97427.47;;;28.72;39.51
36538;BME280;22545;48.892;9.138;2022-08-14T07:42:58;97434.91;;;28.83;39.20
36538;BME280;22545;48.892;9.138;2022-08-14T07:45:24;97435.78;;;30.39;36.47
36538;BME280;22545;48.892;9.138;2022-08-14T07:47:49;97430.81;;;30.22;36.18
36538;BME280;22545;48.892;9.138;2022-08-14T07:50:16;97429.31;;;30.06;36.62
36538;BME280;22545;48.892;9.138;2022-08-14T07:52:45;97432.50;;;29.32;36.83
36538;BME280;22545;48.892;9.138;2022-08-14T07:55:12;97428.97;;;30.23;35.36
36538;BME280;22545;48.892;9.138;2022-08-14T07:57:38;97432.28;;;29.11;36.61
36538;BME280;22545;48.892;9.138;2022-08-14T08:00:05;97435.00;;;28.96;37.24
36538;BME280;22545;48.892;9.138;2022-08-14T08:02:33;97442.47;;;29.86;36.20
36538;BME280;22545;48.892;9.138;2022-08-14T08:04:59;97436.09;;;30.64;35.03
36538;BME280;22545;48.892;9.138;2022-08-14T08:07:25;97429.41;;;30.88;34.20
36538;BME280;22545;48.892;9.138;2022-08-14T08:09:54;97438.84;;;30.35;35.20
36538;BME280;22545;48.892;9.138;2022-08-14T08:12:20;97433.81;;;30.12;34.58
36538;BME280;22545;48.892;9.138;2022-08-14T08:14:46;97429.91;;;29.66;35.33
36538;BME280;22545;48.892;9.138;2022-08-14T08:17:12;97423.31;;;29.27;35.63
36538;BME280;22545;48.892;9.138;2022-08-14T08:19:38;97416.75;;;29.52;35.90
36538;BME280;22545;48.892;9.138;2022-08-14T08:22:03;97411.31;;;29.60;36.09
36538;BME280;22545;48.892;9.138;2022-08-14T08:24:29;97408.50;;;30.51;34.82
36538;BME280;22545;48.892;9.138;2022-08-14T08:26:54;97418.41;;;31.51;33.49
36538;BME280;22545;48.892;9.138;2022-08-14T08:29:20;97409.59;;;31.51;32.76
36538;BME280;22545;48.892;9.138;2022-08-14T08:31:49;97399.50;;;29.62;34.53
36538;BME280;22545;48.892;9.138;2022-08-14T08:34:18;97409.56;;;30.91;32.61
36538;BME280;22545;48.892;9.138;2022-08-14T08:36:44;97403.69;;;30.20;33.43
36538;BME280;22545;48.892;9.138;2022-08-14T08:39:10;97402.06;;;31.41;32.27
36538;BME280;22545;48.892;9.138;2022-08-14T08:41:42;97409.75;;;30.62;31.92
36538;BME280;22545;48.892;9.138;2022-08-14T08:44:08;97408.03;;;28.65;34.21
36538;BME280;22545;48.892;9.138;2022-08-14T08:46:33;97410.03;;;28.41;35.36
36538;BME280;22545;48.892;9.138;2022-08-14T08:48:59;97413.19;;;28.36;35.85
36538;BME280;22545;48.892;9.138;2022-08-14T08:51:34;97407.44;;;28.48;35.82
36538;BME280;22545;48.892;9.138;2022-08-14T08:54:06;97395.59;;;28.07;36.47
36538;BME280;22545;48.892;9.138;2022-08-14T08:56:43;97391.38;;;28.49;35.64
36538;BME280;22545;48.892;9.138;2022-08-14T09:01:40;97396.09;;;29.19;34.05
36538;BME280;22545;48.892;9.138;2022-08-14T09:04:05;97391.84;;;29.46;34.32
36538;BME280;22545;48.892;9.138;2022-08-14T09:06:30;97384.03;;;29.66;34.15
36538;BME280;22545;48.892;9.138;2022-08-14T09:08:55;97377.47;;;29.27;34.47
36538;BME280;22545;48.892;9.138;2022-08-14T09:11:21;97370.66;;;30.29;32.67
36538;BME280;22545;48.892;9.138;2022-08-14T09:13:50;97380.19;;;27.66;36.28
36538;BME280;22545;48.892;9.138;2022-08-14T09:16:23;97378.81;;;29.79;34.13
36538;BME280;22545;48.892;9.138;2022-08-14T09:18:49;97362.78;;;31.43;31.70
36538;BME280;22545;48.892;9.138;2022-08-14T09:21:14;97358.69;;;31.67;31.61
36538;BME280;22545;48.892;9.138;2022-08-14T09:23:40;97361.59;;;31.32;32.27
36538;BME280;22545;48.892;9.138;2022-08-14T09:26:05;97357.75;;;31.01;32.03
36538;BME280;22545;48.892;9.138;2022-08-14T09:28:30;97369.13;;;30.75;32.79
36538;BME280;22545;48.892;9.138;2022-08-14T09:30:56;97366.78;;;30.25;32.69
36538;BME280;22545;48.892;9.138;2022-08-14T09:33:36;97369.13;;;30.55;32.39
36538;BME280;22545;48.892;9.138;2022-08-14T09:36:25;97363.31;;;31.92;30.54
36538;BME280;22545;48.892;9.138;2022-08-14T09:41:41;97373.06;;;32.11;30.83
36538;BME280;22545;48.892;9.138;2022-08-14T09:44:18;97372.63;;;31.42;31.23
36538;BME280;22545;48.892;9.138;2022-08-14T09:46:52;97386.09;;;31.68;30.58
36538;BME280;22545;48.892;9.138;2022-08-14T09:49:18;97367.06;;;32.61;29.82
36538;BME280;22545;48.892;9.138;2022-08-14T09:51:53;97376.97;;;30.22;32.49
36538;BME280;22545;48.892;9.138;2022-08-14T09:54:34;97362.97;;;28.73;34.27
36538;BME280;22545;48.892;9.138;2022-08-14T09:56:59;97356.25;;;28.77;34.45
36538;BME280;22545;48.892;9.138;2022-08-14T09:59:25;97353.84;;;29.25;34.01
36538;BME280;22545;48.892;9.138;2022-08-14T10:01:51;97352.19;;;28.74;34.31
36538;BME280;22545;48.892;9.138;2022-08-14T10:04:21;97340.50;;;28.47;34.94
36538;BME280;22545;48.892;9.138;2022-08-14T10:06:48;97339.41;;;29.70;33.50
36538;BME280;22545;48.892;9.138;2022-08-14T10:09:14;97351.41;;;29.65;33.50
36538;BME280;22545;48.892;9.138;2022-08-14T10:11:40;97342.19;;;30.78;32.40
36538;BME280;22545;48.892;9.138;2022-08-14T10:14:16;97334.41;;;29.81;32.64
36538;BME280;22545;48.892;9.138;2022-08-14T10:16:42;97320.66;;;29.01;33.93
36538;BME280;22545;48.892;9.138;2022-08-14T10:19:08;97317.25;;;28.86;33.85
36538;BME280;22545;48.892;9.138;2022-08-14T10:21:35;97311.50;;;29.74;32.84
36538;BME280;22545;48.892;9.138;2022-08-14T10:24:01;97308.06;;;29.38;33.88
36538;BME280;22545;48.892;9.138;2022-08-14T10:26:26;97315.03;;;29.81;33.07
36538;BME280;22545;48.892;9.138;2022-08-14T10:28:52;97294.41;;;30.71;32.11
36538;BME280;22545;48.892;9.138;2022-08-14T10:31:24;97292.75;;;30.44;32.10
36538;BME280;22545;48.892;9.138;2022-08-14T10:33:57;97272.94;;;30.40;32.59
36538;BME280;22545;48.892;9.138;2022-08-14T10:36:27;97280.91;;;30.26;31.72
36538;BME280;22545;48.892;9.138;2022-08-14T10:38:55;97264.41;;;30.51;32.38
36538;BME280;22545;48.892;9.138;2022-08-14T10:41:22;97269.69;;;29.69;32.62
36538;BME280;22545;48.892;9.138;2022-08-14T10:44:07;97275.19;;;30.29;31.99
36538;BME280;22545;48.892;9.138;2022-08-14T10:46:38;97268.72;;;29.77;32.75
36538;BME280;22545;48.892;9.138;2022-08-14T10:49:05;97254.19;;;30.75;32.51
36538;BME280;22545;48.892;9.138;2022-08-14T10:51:33;97256.44;;;30.51;31.65
36538;BME280;22545;48.892;9.138;2022-08-14T10:54:03;97249.25;;;29.56;32.11
36538;BME280;22545;48.892;9.138;2022-08-14T10:56:29;97239.41;;;29.08;32.90
36538;BME280;22545;48.892;9.138;2022-08-14T10:59:01;97238.41;;;29.03;33.05
36538;BME280;22545;48.892;9.138;2022-08-14T11:01:34;97239.47;;;29.15;32.34
36538;BME280;22545;48.892;9.138;2022-08-14T11:03:59;97252.06;;;28.78;33.26
36538;BME280;22545;48.892;9.138;2022-08-14T11:06:25;97247.34;;;28.73;33.46
36538;BME280;22545;48.892;9.138;2022-08-14T11:08:50;97236.06;;;28.86;33.51
36538;BME280;22545;48.892;9.138;2022-08-14T11:11:16;97238.13;;;28.63;33.82
36538;BME280;22545;48.892;9.138;2022-08-14T11:13:42;97246.38;;;28.81;33.43
36538;BME280;22545;48.892;9.138;2022-08-14T11:16:10;97241.16;;;28.38;33.47
36538;BME280;22545;48.892;9.138;2022-08-14T11:18:35;97248.91;;;28.61;33.15
36538;BME280;22545;48.892;9.138;2022-08-14T11:21:01;97241.50;;;28.35;33.38
36538;BME280;22545;48.892;9.138;2022-08-14T11:23:30;97231.28;;;28.75;33.42
36538;BME280;22545;48.892;9.138;2022-08-14T11:25:57;97235.19;;;28.57;33.48
36538;BME280;22545;48.892;9.138;2022-08-14T11:28:23;97245.72;;;28.51;33.32
36538;BME280;22545;48.892;9.138;2022-08-14T11:30:49;97251.56;;;28.68;32.97
36538;BME280;22545;48.892;9.138;2022-08-14T11:33:15;97252.16;;;28.63;32.61
36538;BME280;22545;48.892;9.138;2022-08-14T11:35:41;97246.34;;;28.53;32.49
36538;BME280;22545;48.892;9.138;2022-08-14T11:38:07;97248.97;;;28.53;33.10
36538;BME280;22545;48.892;9.138;2022-08-14T11:40:34;97237.41;;;28.54;33.49
36538;BME280;22545;48.892;9.138;2022-08-14T11:43:00;97245.50;;;28.74;33.14
36538;BME280;22545;48.892;9.138;2022-08-14T11:45:27;97241.88;;;28.75;33.59
36538;BME280;22545;48.892;9.138;2022-08-14T11:47:53;97237.31;;;28.62;32.91
36538;BME280;22545;48.892;9.138;2022-08-14T11:50:21;97239.31;;;28.88;33.05
36538;BME280;22545;48.892;9.138;2022-08-14T11:52:48;97241.38;;;28.65;32.96
36538;BME280;22545;48.892;9.138;2022-08-14T11:55:13;97235.38;;;28.28;33.57
36538;BME280;22545;48.892;9.138;2022-08-14T11:57:40;97236.34;;;28.48;33.26
36538;BME280;22545;48.892;9.138;2022-08-14T12:00:07;97228.03;;;28.73;32.93
36538;BME280;22545;48.892;9.138;2022-08-14T12:02:33;97214.13;;;28.99;32.69
36538;BME280;22545;48.892;9.138;2022-08-14T12:04:59;97206.56;;;29.24;32.92
36538;BME280;22545;48.892;9.138;2022-08-14T12:07:24;97201.34;;;29.03;32.93
36538;BME280;22545;48.892;9.138;2022-08-14T12:09:53;97197.81;;;29.24;32.59
36538;BME280;22545;48.892;9.138;2022-08-14T12:12:21;97191.19;;;28.78;32.52
36538;BME280;22545;48.892;9.138;2022-08-14T12:14:53;97202.03;;;28.55;33.21
36538;BME280;22545;48.892;9.138;2022-08-14T12:17:23;97200.28;;;28.62;33.14
36538;BME280;22545;48.892;9.138;2022-08-14T12:19:50;97193.78;;;29.00;32.97
36538;BME280;22545;48.892;9.138;2022-08-14T12:22:16;97188.03;;;28.89;33.14
36538;BME280;22545;48.892;9.138;2022-08-14T12:24:42;97187.47;;;29.01;32.85
36538;BME280;22545;48.892;9.138;2022-08-14T12:27:08;97190.13;;;28.72;31.67
36538;BME280;22545;48.892;9.138;2022-08-14T12:29:33;97182.75;;;28.61;32.48
36538;BME280;22545;48.892;9.138;2022-08-14T12:32:00;97185.28;;;28.48;31.49
36538;BME280;22545;48.892;9.138;2022-08-14T12:34:31;97186.22;;;28.62;31.85
36538;BME280;22545;48.892;9.138;2022-08-14T12:37:00;97178.63;;;28.58;31.68
36538;BME280;22545;48.892;9.138;2022-08-14T12:39:27;97170.63;;;28.73;30.79
36538;BME280;22545;48.892;9.138;2022-08-14T12:41:53;97175.31;;;28.78;30.74
36538;BME280;22545;48.892;9.138;2022-08-14T12:44:34;97164.09;;;29.11;31.01
36538;BME280;22545;48.892;9.138;2022-08-14T12:47:03;97162.66;;;29.08;30.61
36538;BME280;22545;48.892;9.138;2022-08-14T12:49:29;97163.16;;;28.90;30.08
36538;BME280;22545;48.892;9.138;2022-08-14T12:51:56;97165.50;;;29.07;30.82
36538;BME280;22545;48.892;9.138;2022-08-14T12:54:22;97164.31;;;29.16;30.58
36538;BME280;22545;48.892;9.138;2022-08-14T12:56:47;97164.75;;;28.78;30.61
36538;BME280;22545;48.892;9.138;2022-08-14T12:59:12;97149.59;;;29.07;30.69